createdAt,value
2023-12-23T00:01:02.897Z,100.00
2023-12-23T00:03:29.595Z,100.00
2023-12-23T00:05:56.309Z,100.00
2023-12-23T00:08:22.987Z,100.00
2023-12-23T00:10:49.948Z,100.00
2023-12-23T00:13:16.632Z,100.00
2023-12-23T00:15:43.243Z,100.00
2023-12-23T00:18:10.268Z,100.00
2023-12-23T00:20:37.646Z,100.00
2023-12-23T00:23:05.125Z,100.00
2023-12-23T00:25:31.818Z,100.00
2023-12-23T00:27:58.444Z,100.00
2023-12-23T00:30:25.099Z,100.00
2023-12-23T00:32:53.098Z,100.00
2023-12-23T00:35:19.832Z,100.00
2023-12-23T00:37:46.871Z,100.00
2023-12-23T00:40:13.873Z,100.00
2023-12-23T00:42:40.616Z,100.00
2023-12-23T00:45:07.913Z,100.00
2023-12-23T00:47:37.532Z,100.00
2023-12-23T00:50:06.186Z,100.00
2023-12-23T00:52:33.146Z,100.00
2023-12-23T00:55:00.902Z,100.00
2023-12-23T00:57:28.946Z,100.00
2023-12-23T00:59:56.319Z,100.00
2023-12-23T01:02:24.172Z,100.00
2023-12-23T01:04:50.930Z,100.00
2023-12-23T01:07:17.673Z,100.00
2023-12-23T01:09:44.314Z,100.00
2023-12-23T01:12:10.936Z,100.00
2023-12-23T01:14:37.803Z,100.00
2023-12-23T01:17:04.808Z,100.00
2023-12-23T01:19:32.008Z,100.00
2023-12-23T01:21:58.963Z,100.00
2023-12-23T01:24:25.637Z,100.00
2023-12-23T01:26:52.304Z,100.00
2023-12-23T01:29:19.810Z,100.00
2023-12-23T01:31:46.544Z,100.00
2023-12-23T01:34:13.318Z,100.00
2023-12-23T01:36:39.902Z,100.00
2023-12-23T01:39:06.511Z,100.00
2023-12-23T01:41:33.154Z,100.00
2023-12-23T01:43:59.833Z,100.00
2023-12-23T01:46:27.250Z,100.00
2023-12-23T01:48:55.249Z,100.00
2023-12-23T01:51:23.056Z,100.00
2023-12-23T01:53:50.320Z,100.00
2023-12-23T01:56:17.730Z,100.00
2023-12-23T01:58:44.618Z,100.00
2023-12-23T02:01:11.397Z,100.00
2023-12-23T02:03:38.894Z,100.00
2023-12-23T02:06:05.716Z,100.00
2023-12-23T02:08:32.431Z,100.00
2023-12-23T02:11:09.018Z,100.00
2023-12-23T02:13:52.438Z,100.00
2023-12-23T02:16:19.521Z,100.00
2023-12-23T02:18:46.609Z,100.00
2023-12-23T02:21:13.356Z,100.00
2023-12-23T02:23:40.024Z,100.00
2023-12-23T02:26:11.410Z,100.00
2023-12-23T02:28:41.551Z,100.00
2023-12-23T02:31:09.780Z,100.00
2023-12-23T02:33:37.204Z,100.00
2023-12-23T02:36:05.089Z,100.00
2023-12-23T02:38:31.751Z,100.00
2023-12-23T02:40:58.403Z,100.00
2023-12-23T02:43:25.013Z,100.00
2023-12-23T02:45:51.620Z,100.00
2023-12-23T02:48:18.362Z,100.00
2023-12-23T02:50:45.097Z,100.00
2023-12-23T02:53:11.778Z,100.00
2023-12-23T02:55:38.556Z,100.00
2023-12-23T02:58:05.421Z,100.00
2023-12-23T03:00:32.153Z,100.00
2023-12-23T03:02:59.042Z,100.00
2023-12-23T03:05:27.053Z,100.00
2023-12-23T03:07:54.230Z,100.00
2023-12-23T03:10:20.840Z,100.00
2023-12-23T03:12:48.216Z,100.00
2023-12-23T03:15:15.205Z,100.00
2023-12-23T03:17:41.861Z,100.00
2023-12-23T03:20:10.001Z,100.00
2023-12-23T03:22:36.905Z,100.00
2023-12-23T03:25:03.951Z,100.00
2023-12-23T03:27:30.551Z,100.00
2023-12-23T03:29:57.378Z,100.00
2023-12-23T03:32:24.086Z,100.00
2023-12-23T03:34:52.025Z,100.00
2023-12-23T03:37:18.654Z,100.00
2023-12-23T03:39:45.269Z,100.00
2023-12-23T03:42:12.521Z,100.00
2023-12-23T03:44:39.166Z,100.00
2023-12-23T03:47:05.934Z,100.00
2023-12-23T03:49:32.558Z,100.00
2023-12-23T03:52:00.582Z,100.00
2023-12-23T03:54:27.214Z,100.00
2023-12-23T03:56:53.803Z,100.00
2023-12-23T03:59:20.635Z,100.00
2023-12-23T04:01:47.506Z,100.00
2023-12-23T04:04:14.218Z,100.00
2023-12-23T04:06:40.964Z,100.00
2023-12-23T04:09:07.804Z,100.00
2023-12-23T04:11:37.530Z,100.00
2023-12-23T04:14:04.611Z,100.00
2023-12-23T04:16:31.467Z,100.00
2023-12-23T04:18:58.613Z,100.00
2023-12-23T04:21:25.386Z,100.00
2023-12-23T04:23:51.975Z,100.00
2023-12-23T04:26:19.142Z,100.00
2023-12-23T04:28:45.924Z,100.00
2023-12-23T04:31:13.141Z,100.00
2023-12-23T04:33:40.076Z,100.00
2023-12-23T04:36:07.690Z,100.00
2023-12-23T04:38:36.316Z,100.00
2023-12-23T04:41:03.250Z,100.00
2023-12-23T04:43:31.551Z,100.00
2023-12-23T04:45:58.939Z,100.00
2023-12-23T04:48:26.807Z,100.00
2023-12-23T04:50:53.674Z,100.00
2023-12-23T04:53:22.373Z,100.00
2023-12-23T04:55:49.675Z,100.00
2023-12-23T04:58:16.375Z,100.00
2023-12-23T05:00:43.069Z,100.00
2023-12-23T05:03:09.682Z,100.00
2023-12-23T05:05:36.483Z,100.00
2023-12-23T05:08:03.548Z,100.00
2023-12-23T05:10:30.237Z,100.00
2023-12-23T05:12:56.851Z,100.00
2023-12-23T05:15:23.469Z,100.00
2023-12-23T05:17:50.610Z,100.00
2023-12-23T05:20:17.700Z,100.00
2023-12-23T05:22:44.848Z,100.00
2023-12-23T05:25:12.106Z,100.00
2023-12-23T05:27:38.730Z,100.00
2023-12-23T05:30:06.441Z,100.00
2023-12-23T05:32:33.245Z,100.00
2023-12-23T05:35:00.024Z,100.00
2023-12-23T05:37:26.680Z,100.00
2023-12-23T05:39:53.311Z,100.00
2023-12-23T05:42:19.895Z,100.00
2023-12-23T05:44:46.530Z,100.00
2023-12-23T05:47:13.471Z,100.00
2023-12-23T05:49:40.154Z,100.00
2023-12-23T05:52:06.837Z,100.00
2023-12-23T05:54:33.517Z,100.00
2023-12-23T05:57:00.264Z,100.00
2023-12-23T05:59:26.909Z,100.00
2023-12-23T06:01:53.705Z,100.00
2023-12-23T06:04:20.711Z,100.00
2023-12-23T06:06:47.474Z,100.00
2023-12-23T06:09:14.153Z,100.00
2023-12-23T06:11:40.844Z,100.00
2023-12-23T06:14:08.125Z,100.00
2023-12-23T06:16:40.193Z,100.00
2023-12-23T06:19:07.376Z,100.00
2023-12-23T06:21:34.384Z,100.00
2023-12-23T06:24:01.124Z,100.00
2023-12-23T06:26:27.861Z,100.00
2023-12-23T06:28:54.626Z,100.00
2023-12-23T06:31:23.114Z,100.00
2023-12-23T06:33:50.162Z,100.00
2023-12-23T06:36:17.380Z,100.00
2023-12-23T06:38:44.172Z,100.00
2023-12-23T06:41:12.521Z,100.00
2023-12-23T06:43:46.381Z,100.00
2023-12-23T06:46:19.044Z,100.00
2023-12-23T06:48:45.827Z,100.00
2023-12-23T06:51:12.662Z,100.00
2023-12-23T06:53:39.492Z,100.00
2023-12-23T06:56:07.582Z,100.00
2023-12-23T06:58:34.328Z,100.00
2023-12-23T07:01:02.151Z,100.00
2023-12-23T07:03:28.840Z,100.00
2023-12-23T07:05:55.781Z,100.00
2023-12-23T07:08:22.673Z,100.00
2023-12-23T07:10:50.568Z,100.00
2023-12-23T07:13:17.218Z,100.00
2023-12-23T07:15:43.836Z,100.00
2023-12-23T07:18:12.014Z,100.00
2023-12-23T07:20:40.951Z,100.00
2023-12-23T07:23:07.620Z,100.00
2023-12-23T07:25:34.317Z,100.00
2023-12-23T07:28:01.163Z,100.00
2023-12-23T07:30:27.899Z,100.00
2023-12-23T07:32:54.946Z,100.00
2023-12-23T07:35:22.400Z,100.00
2023-12-23T07:37:49.163Z,100.00
2023-12-23T07:40:16.015Z,100.00
2023-12-23T07:42:42.831Z,100.00
2023-12-23T07:45:10.161Z,100.00
2023-12-23T07:47:36.787Z,100.00
2023-12-23T07:50:05.037Z,100.00
2023-12-23T07:52:31.866Z,100.00
2023-12-23T07:54:58.594Z,100.00
2023-12-23T07:57:25.222Z,100.00
2023-12-23T07:59:51.906Z,100.00
2023-12-23T08:02:18.655Z,100.00
2023-12-23T08:04:45.609Z,100.00
2023-12-23T08:07:12.587Z,100.00
2023-12-23T08:09:39.872Z,100.00
2023-12-23T08:12:08.169Z,100.00
2023-12-23T08:14:35.042Z,100.00
2023-12-23T08:17:01.680Z,100.00
2023-12-23T08:19:28.454Z,100.00
2023-12-23T08:21:55.069Z,100.00
2023-12-23T08:24:22.386Z,100.00
2023-12-23T08:26:49.022Z,100.00
2023-12-23T08:29:15.649Z,100.00
2023-12-23T08:31:46.136Z,100.00
2023-12-23T08:34:13.857Z,100.00
2023-12-23T08:36:40.521Z,98.93
2023-12-23T08:39:07.194Z,81.75
2023-12-23T08:41:36.435Z,85.40
2023-12-23T08:44:03.808Z,79.32
2023-12-23T08:46:31.537Z,82.09
2023-12-23T08:48:58.723Z,83.80
2023-12-23T08:51:25.481Z,77.67
2023-12-23T08:53:52.369Z,74.24
2023-12-23T08:56:19.117Z,71.77
2023-12-23T08:58:45.913Z,96.08
2023-12-23T09:01:12.739Z,91.83
2023-12-23T09:03:39.430Z,100.00
2023-12-23T09:06:07.615Z,99.82
2023-12-23T09:08:35.842Z,100.00
2023-12-23T09:11:06.059Z,100.00
2023-12-23T09:13:32.737Z,100.00
2023-12-23T09:16:02.417Z,97.81
2023-12-23T09:18:29.145Z,100.00
2023-12-23T09:20:55.815Z,100.00
2023-12-23T09:23:22.452Z,100.00
2023-12-23T09:25:49.214Z,100.00
2023-12-23T09:28:16.045Z,100.00
2023-12-23T09:30:42.673Z,100.00
2023-12-23T09:33:09.366Z,100.00
2023-12-23T09:35:36.149Z,100.00
2023-12-23T09:38:02.909Z,100.00
2023-12-23T09:40:29.608Z,100.00
2023-12-23T09:42:56.380Z,100.00
2023-12-23T09:45:23.678Z,100.00
2023-12-23T09:47:50.746Z,100.00
2023-12-23T09:50:17.779Z,100.00
2023-12-23T09:52:47.463Z,100.00
2023-12-23T09:55:18.060Z,99.81
2023-12-23T09:57:45.288Z,97.74
2023-12-23T10:00:13.140Z,94.13
2023-12-23T10:02:41.148Z,92.13
2023-12-23T10:05:08.751Z,100.00
2023-12-23T10:07:35.493Z,100.00
2023-12-23T10:10:02.085Z,95.47
2023-12-23T10:12:28.834Z,93.21
2023-12-23T10:14:55.494Z,93.73
2023-12-23T10:17:22.196Z,92.13
2023-12-23T10:19:49.550Z,93.64
2023-12-23T10:22:19.861Z,92.80
2023-12-23T10:24:46.549Z,95.09
2023-12-23T10:27:17.159Z,95.71
2023-12-23T10:29:45.471Z,91.94
2023-12-23T10:32:16.373Z,91.06
2023-12-23T10:34:51.063Z,92.57
2023-12-23T10:37:18.817Z,85.60
2023-12-23T10:39:52.076Z,88.65
2023-12-23T10:42:24.680Z,85.80
2023-12-23T10:44:52.578Z,92.32
2023-12-23T10:47:19.299Z,92.48
2023-12-23T10:49:47.470Z,89.74
2023-12-23T10:52:15.359Z,90.49
2023-12-23T10:54:42.035Z,89.39
2023-12-23T10:57:11.022Z,89.23
2023-12-23T10:59:37.859Z,94.51
2023-12-23T11:02:15.705Z,94.06
2023-12-23T11:04:52.434Z,90.51
2023-12-23T11:07:23.325Z,87.40
2023-12-23T11:09:52.659Z,86.36
2023-12-23T11:12:19.664Z,83.48
2023-12-23T11:14:47.587Z,81.51
2023-12-23T11:17:32.773Z,79.05
2023-12-23T11:20:01.160Z,81.52
2023-12-23T11:22:39.039Z,83.61
2023-12-23T11:25:39.562Z,88.44
2023-12-23T11:28:14.298Z,83.76
2023-12-23T11:30:51.727Z,83.21
2023-12-23T11:33:23.038Z,84.60
2023-12-23T11:35:51.010Z,84.78
2023-12-23T11:38:17.699Z,83.44
2023-12-23T11:40:44.888Z,84.40
2023-12-23T11:43:11.536Z,84.71
2023-12-23T11:45:41.059Z,82.98
2023-12-23T11:48:08.838Z,81.24
2023-12-23T11:50:35.579Z,84.37
2023-12-23T11:53:02.427Z,87.58
2023-12-23T11:55:29.624Z,82.69
2023-12-23T11:57:56.530Z,87.65
2023-12-23T12:00:23.242Z,87.57
2023-12-23T12:02:50.138Z,89.74
2023-12-23T12:05:16.997Z,87.18
2023-12-23T12:07:43.811Z,87.68
2023-12-23T12:10:11.497Z,85.61
2023-12-23T12:12:38.975Z,85.84
2023-12-23T12:15:06.143Z,83.74
2023-12-23T12:17:33.315Z,85.49
2023-12-23T12:20:01.392Z,83.38
2023-12-23T12:22:28.142Z,84.02
2023-12-23T12:24:54.858Z,88.58
2023-12-23T12:27:21.790Z,86.17
2023-12-23T12:29:48.376Z,84.39
2023-12-23T12:32:15.046Z,84.57
2023-12-23T12:34:43.417Z,82.94
2023-12-23T12:37:11.313Z,85.36
2023-12-23T12:39:37.991Z,88.08
2023-12-23T12:42:04.991Z,85.79
2023-12-23T12:44:33.534Z,79.49
2023-12-23T12:47:00.230Z,84.79
2023-12-23T12:49:27.091Z,82.92
2023-12-23T12:51:54.526Z,88.86
2023-12-23T12:54:25.576Z,85.05
2023-12-23T12:56:52.352Z,85.52
2023-12-23T12:59:19.180Z,79.32
2023-12-23T13:01:45.978Z,80.87
2023-12-23T13:04:12.634Z,87.30
2023-12-23T13:06:39.232Z,84.93
2023-12-23T13:09:06.037Z,83.13
2023-12-23T13:11:33.729Z,86.84
2023-12-23T13:14:00.645Z,85.55
2023-12-23T13:16:27.393Z,80.97
2023-12-23T13:18:59.941Z,83.40
2023-12-23T13:21:28.748Z,82.12
2023-12-23T13:23:55.660Z,81.57
2023-12-23T13:26:22.429Z,81.96
2023-12-23T13:28:52.151Z,85.85
2023-12-23T13:31:20.662Z,84.34
2023-12-23T13:33:47.479Z,86.50
2023-12-23T13:36:14.324Z,94.28
2023-12-23T13:38:44.714Z,92.96
2023-12-23T13:41:14.491Z,98.65
2023-12-23T13:43:41.271Z,99.92
2023-12-23T13:46:07.977Z,99.62
2023-12-23T13:48:34.652Z,100.00
2023-12-23T13:51:01.793Z,100.00
2023-12-23T13:53:28.585Z,98.51
2023-12-23T13:55:55.279Z,100.00
2023-12-23T13:58:21.968Z,100.00
2023-12-23T14:00:48.623Z,100.00
2023-12-23T14:03:16.560Z,100.00
2023-12-23T14:05:44.128Z,100.00
2023-12-23T14:08:10.922Z,100.00
2023-12-23T14:10:37.576Z,100.00
2023-12-23T14:13:04.419Z,100.00
2023-12-23T14:15:31.075Z,100.00
2023-12-23T14:17:57.807Z,100.00
2023-12-23T14:20:24.575Z,100.00
2023-12-23T14:22:53.189Z,100.00
2023-12-23T14:25:20.133Z,100.00
2023-12-23T14:27:46.835Z,100.00
2023-12-23T14:30:14.423Z,100.00
2023-12-23T14:32:41.865Z,100.00
2023-12-23T14:35:10.595Z,100.00
2023-12-23T14:37:45.125Z,100.00
2023-12-23T14:40:17.111Z,100.00
2023-12-23T14:42:43.868Z,100.00
2023-12-23T14:45:10.698Z,100.00
2023-12-23T14:47:37.613Z,100.00
2023-12-23T14:50:04.850Z,100.00
2023-12-23T14:52:31.533Z,100.00
2023-12-23T14:54:58.215Z,100.00
2023-12-23T14:57:25.961Z,100.00
2023-12-23T14:59:52.605Z,100.00
2023-12-23T15:02:19.810Z,100.00
2023-12-23T15:04:46.580Z,100.00
2023-12-23T15:07:13.309Z,100.00
2023-12-23T15:09:40.006Z,100.00
2023-12-23T15:12:06.849Z,100.00
2023-12-23T15:14:33.514Z,100.00
2023-12-23T15:17:01.381Z,100.00
2023-12-23T15:19:28.289Z,100.00
2023-12-23T15:21:56.611Z,100.00
2023-12-23T15:24:24.788Z,100.00
2023-12-23T15:26:51.467Z,100.00
2023-12-23T15:29:18.619Z,100.00
2023-12-23T15:31:45.345Z,100.00
2023-12-23T15:34:12.078Z,100.00
2023-12-23T15:36:38.773Z,98.89
2023-12-23T15:39:05.463Z,96.90
2023-12-23T15:41:32.362Z,93.38
2023-12-23T15:43:59.167Z,91.94
2023-12-23T15:46:25.806Z,93.10
2023-12-23T15:48:52.673Z,91.27
2023-12-23T15:51:19.955Z,92.92
2023-12-23T15:53:46.702Z,90.90
2023-12-23T15:56:14.175Z,88.87
2023-12-23T15:58:41.743Z,88.33
2023-12-23T16:01:08.716Z,86.41
2023-12-23T16:03:35.410Z,86.57
2023-12-23T16:06:02.448Z,85.85
2023-12-23T16:08:29.313Z,83.25
2023-12-23T16:10:55.980Z,84.42
2023-12-23T16:13:24.241Z,85.41
2023-12-23T16:15:50.867Z,85.97
2023-12-23T16:18:17.604Z,84.81
2023-12-23T16:20:44.260Z,86.51
2023-12-23T16:23:10.909Z,87.13
2023-12-23T16:25:37.525Z,85.88
2023-12-23T16:28:04.347Z,89.91
2023-12-23T16:30:31.031Z,91.40
2023-12-23T16:32:57.813Z,89.40
2023-12-23T16:35:24.570Z,87.19
2023-12-23T16:37:51.395Z,86.02
2023-12-23T16:40:18.023Z,85.64
2023-12-23T16:42:44.760Z,85.53
2023-12-23T16:45:15.672Z,85.42
2023-12-23T16:47:45.689Z,84.85
2023-12-23T16:50:14.122Z,84.65
2023-12-23T16:52:41.390Z,84.56
2023-12-23T16:55:08.508Z,83.09
2023-12-23T16:57:35.124Z,83.57
2023-12-23T17:00:02.002Z,78.37
2023-12-23T17:02:28.951Z,78.43
2023-12-23T17:04:55.744Z,78.47
2023-12-23T17:07:22.474Z,76.87
2023-12-23T17:09:49.181Z,73.19
2023-12-23T17:12:16.211Z,71.83
2023-12-23T17:14:42.877Z,71.55
2023-12-23T17:17:10.581Z,67.41
2023-12-23T17:19:37.277Z,68.67
2023-12-23T17:22:04.189Z,69.19
2023-12-23T17:24:30.800Z,69.55
2023-12-23T17:26:57.449Z,67.64
2023-12-23T17:29:24.098Z,64.55
2023-12-23T17:31:50.898Z,62.93
2023-12-23T17:34:17.638Z,65.33
2023-12-23T17:36:44.351Z,64.27
2023-12-23T17:39:11.090Z,62.65
2023-12-23T17:41:38.436Z,63.02
2023-12-23T17:44:05.499Z,62.26
2023-12-23T17:46:32.144Z,61.01
2023-12-23T17:48:59.011Z,60.39
2023-12-23T17:51:25.716Z,60.06
2023-12-23T17:53:52.435Z,60.20
2023-12-23T17:56:22.254Z,60.84
2023-12-23T17:58:48.986Z,60.34
2023-12-23T18:01:15.797Z,59.61
2023-12-23T18:03:42.592Z,60.80
2023-12-23T18:06:10.122Z,61.79
2023-12-23T18:08:37.419Z,58.50
2023-12-23T18:11:04.438Z,61.12
2023-12-23T18:13:31.188Z,58.65
2023-12-23T18:15:57.781Z,58.83
2023-12-23T18:18:24.466Z,56.64
2023-12-23T18:20:52.944Z,55.87
2023-12-23T18:23:19.879Z,54.23
2023-12-23T18:25:46.538Z,55.49
2023-12-23T18:28:14.021Z,57.23
2023-12-23T18:30:42.149Z,57.34
2023-12-23T18:33:08.985Z,57.50
2023-12-23T18:35:35.846Z,59.12
2023-12-23T18:38:02.580Z,59.48
2023-12-23T18:40:29.251Z,60.71
2023-12-23T18:43:00.007Z,58.85
2023-12-23T18:45:26.774Z,56.88
2023-12-23T18:47:53.694Z,58.05
2023-12-23T18:50:20.442Z,58.80
2023-12-23T18:52:47.090Z,59.16
2023-12-23T18:55:13.970Z,57.31
2023-12-23T18:57:41.534Z,55.63
2023-12-23T19:00:09.811Z,55.84
2023-12-23T19:02:36.878Z,55.21
2023-12-23T19:05:03.926Z,54.88
2023-12-23T19:07:30.779Z,52.94
2023-12-23T19:09:57.423Z,54.19
2023-12-23T19:12:24.781Z,52.94
2023-12-23T19:14:51.487Z,53.34
2023-12-23T19:17:18.310Z,54.09
2023-12-23T19:19:46.678Z,54.01
2023-12-23T19:22:14.016Z,55.26
2023-12-23T19:24:40.747Z,54.84
2023-12-23T19:27:07.475Z,56.47
2023-12-23T19:29:38.128Z,57.13
2023-12-23T19:32:05.476Z,57.91
2023-12-23T19:34:32.203Z,58.89
2023-12-23T19:36:58.797Z,57.73
2023-12-23T19:39:25.575Z,58.11
2023-12-23T19:41:52.256Z,60.24
2023-12-23T19:44:22.823Z,61.57
2023-12-23T19:46:49.578Z,60.29
2023-12-23T19:49:16.290Z,58.32
2023-12-23T19:51:42.994Z,55.29
2023-12-23T19:54:09.619Z,54.43
2023-12-23T19:56:36.402Z,54.47
2023-12-23T19:59:04.923Z,54.56
2023-12-23T20:01:31.846Z,55.08
2023-12-23T20:03:59.150Z,55.76
2023-12-23T20:06:25.904Z,55.51
2023-12-23T20:08:52.648Z,54.11
2023-12-23T20:11:28.602Z,53.47
2023-12-23T20:13:55.313Z,52.72
2023-12-23T20:16:28.668Z,52.77
2023-12-23T20:18:56.254Z,52.57
2023-12-23T20:21:23.756Z,52.89
2023-12-23T20:23:53.868Z,53.87
2023-12-23T20:26:21.043Z,53.39
2023-12-23T20:28:48.291Z,52.92
2023-12-23T20:31:16.030Z,53.47
2023-12-23T20:33:43.026Z,52.98
2023-12-23T20:36:09.816Z,52.31
2023-12-23T20:38:36.484Z,53.51
2023-12-23T20:41:03.334Z,53.79
2023-12-23T20:43:30.301Z,52.67
2023-12-23T20:45:56.976Z,52.49
2023-12-23T20:48:23.947Z,51.91
2023-12-23T20:50:52.920Z,53.46
2023-12-23T20:53:21.648Z,53.10
2023-12-23T20:55:48.718Z,52.71
2023-12-23T20:58:15.362Z,52.77
2023-12-23T21:00:41.990Z,50.48
2023-12-23T21:03:08.739Z,49.68
2023-12-23T21:05:35.821Z,49.51
2023-12-23T21:08:02.568Z,51.19
2023-12-23T21:10:29.369Z,51.21
2023-12-23T21:12:57.092Z,51.12
2023-12-23T21:15:23.712Z,52.50
2023-12-23T21:17:50.458Z,56.24
2023-12-23T21:20:17.472Z,59.83
2023-12-23T21:22:44.183Z,61.33
2023-12-23T21:25:10.956Z,59.74
2023-12-23T21:27:37.612Z,62.49
2023-12-23T21:30:05.285Z,57.52
2023-12-23T21:32:32.139Z,59.39
2023-12-23T21:34:59.141Z,62.51
2023-12-23T21:37:25.804Z,61.29
2023-12-23T21:39:52.436Z,62.05
2023-12-23T21:42:19.032Z,66.54
2023-12-23T21:44:45.661Z,66.13
2023-12-23T21:47:12.553Z,66.78
2023-12-23T21:49:39.473Z,65.95
2023-12-23T21:52:06.526Z,66.83
2023-12-23T21:54:33.153Z,66.96
2023-12-23T21:57:00.772Z,64.31
2023-12-23T21:59:27.501Z,66.73
2023-12-23T22:01:54.210Z,69.87
2023-12-23T22:04:20.859Z,71.86
2023-12-23T22:06:47.431Z,68.14
2023-12-23T22:09:14.015Z,65.52
2023-12-23T22:11:40.743Z,62.21
2023-12-23T22:14:07.439Z,62.50
2023-12-23T22:16:34.102Z,64.59
2023-12-23T22:19:00.758Z,60.74
2023-12-23T22:21:27.453Z,62.49
2023-12-23T22:23:54.096Z,62.30
2023-12-23T22:26:20.729Z,60.65
2023-12-23T22:28:47.369Z,60.24
2023-12-23T22:31:14.328Z,54.79
2023-12-23T22:33:41.128Z,56.04
2023-12-23T22:36:10.650Z,57.61
2023-12-23T22:38:37.423Z,55.99
2023-12-23T22:41:05.901Z,56.45
2023-12-23T22:43:33.033Z,59.34
2023-12-23T22:45:59.685Z,60.71
2023-12-23T22:48:26.433Z,62.47
2023-12-23T22:50:53.280Z,65.40
2023-12-23T22:53:19.941Z,65.87
2023-12-23T22:55:46.633Z,66.76
2023-12-23T22:58:13.293Z,67.97
2023-12-23T23:00:40.319Z,67.46
2023-12-23T23:03:07.046Z,66.82
2023-12-23T23:05:33.813Z,67.04
2023-12-23T23:08:01.971Z,67.20
2023-12-23T23:10:28.666Z,69.86
2023-12-23T23:12:55.229Z,72.88
2023-12-23T23:15:21.867Z,74.42
2023-12-23T23:17:48.795Z,77.10
2023-12-23T23:20:18.460Z,78.90
2023-12-23T23:22:45.150Z,78.17
2023-12-23T23:25:11.754Z,79.35
2023-12-23T23:27:38.440Z,82.83
2023-12-23T23:30:05.707Z,83.70
2023-12-23T23:32:32.623Z,88.48
2023-12-23T23:35:05.261Z,89.89
2023-12-23T23:37:37.828Z,93.57
2023-12-23T23:40:04.720Z,93.96
2023-12-23T23:42:31.373Z,91.69
2023-12-23T23:44:58.078Z,93.00
2023-12-23T23:47:24.790Z,91.07
2023-12-23T23:49:51.617Z,90.69
2023-12-23T23:52:18.257Z,94.69
2023-12-23T23:54:44.885Z,96.46
2023-12-23T23:57:11.508Z,90.76
2023-12-23T23:59:38.196Z,93.09
